Strona główna
METAR-TAF:

METAR-TAF

Lotnisko :

La Chaux-de-Fonds, Szwajcaria

Szerokość geograficzna: 47-05-03N, Długość geograficzna: 006-47-37E, wysokość: 1027 m

Aktualna obserwacja pogody

Raport powstał 7 minut temu, godzina 12:20 UTC
Wiatr 4 kt z kierunków zmiennych
Temperatura 22°C
Wilgotność 41%
Ciśnienie 1017 hPa
Widzialność 10 km lub więcej
Brak chmur poniżej 1500 m i brak chmur cumulonimbus

METAR: LSGC 181220Z VRB04KT CAVOK 22/08 Q1017

czas: 14:27 (12:27 UTC)

Prognoza

Raport powstał 1 godzina i 2 minut temu, godzina 11:25 UTC
Prognoza ważna od 18 godzina 12 UTC do 18 godzina 21 UTC
Wiatr 3 kt z kierunków zmiennych
Widzialność 10 km lub więcej
Rozproszone chmury na wysokości 4000 ft

TAF: LSGC 181125Z 1812/1821 VRB03KT 9999 SCT040

Obserwacja i prognoza pogody dla ponad 4000 lotnisk (raport METAR i TAF).

Dostępne stacje oznaczono żółtymi i czerwonymi punktami na mapie.

Najedź kursorem aby zobaczyć nazwę stacji.

Kliknij aby zobaczyć obserwacje i prognozy pogody.

Aby zmienić mapę: kliknij na zielony przycisk z czarnym krzyżykiem, aby powiększyć; na zielony przycisk z myślnikiem, aby pomniejszyć; na zielone strzałki, aby przejść do map sąsiednich.


METAR-TAF: